Time,TemperatureF,DewpointF,PressureIn,WindDirection,WindDirectionDegrees,WindSpeedMPH,WindSpeedGustMPH,Humidity,HourlyPrecipIn,Conditions,Clouds,dailyrainin,SolarRadiationWatts/m^2,SoftwareType,DateUTC
2013-06-23 00:01:00,76.0,74.0,30.02,SE,140,0.0,0.0,93,0.00,,,0.00,0.000000,,2013-06-23 05:01:00,
2013-06-23 00:11:00,76.0,74.0,30.02,SE,140,0.0,0.0,93,0.00,,,0.00,0.000000,,2013-06-23 05:11:00,
2013-06-23 00:22:00,75.0,73.0,30.03,SE,140,0.0,0.0,95,0.00,,,0.00,0.000000,,2013-06-23 05:22:00,
2013-06-23 00:32:00,75.0,73.0,30.03,SE,140,0.0,0.0,95,0.00,,,0.00,0.000000,,2013-06-23 05:32:00,
2013-06-23 00:42:00,75.0,73.0,30.03,SE,140,0.0,0.0,95,0.00,,,0.00,0.000000,,2013-06-23 05:42:00,
2013-06-23 00:52:00,74.0,72.0,30.02,SE,140,0.0,1.0,95,0.00,,,0.00,0.000000,,2013-06-23 05:52:00,
2013-06-23 01:02:00,74.0,72.0,30.02,SE,140,0.0,0.0,95,0.00,,,0.00,0.000000,,2013-06-23 06:02:00,
2013-06-23 01:12:00,74.0,72.0,30.02,SE,140,0.0,0.0,95,0.00,,,0.00,0.000000,,2013-06-23 06:12:00,
2013-06-23 01:22:00,74.0,72.0,30.02,SE,134,0.0,1.0,95,0.00,,,0.00,0.000000,,2013-06-23 06:22:00,
2013-06-23 01:33:00,74.0,72.0,30.02,SE,134,0.0,0.0,95,0.00,,,0.00,0.000000,,2013-06-23 06:33:00,
2013-06-23 01:43:00,74.0,72.0,30.02,SE,134,0.0,0.0,95,0.00,,,0.00,0.000000,,2013-06-23 06:43:00,
2013-06-23 01:52:00,74.0,72.0,30.02,SE,134,0.0,0.0,95,0.00,,,0.00,0.000000,,2013-06-23 06:52:00,
2013-06-23 02:02:00,74.0,73.0,30.02,SE,134,0.0,0.0,96,0.00,,,0.00,0.000000,,2013-06-23 07:02:00,
2013-06-23 02:12:00,74.0,73.0,30.01,SE,134,0.0,0.0,96,0.00,,,0.00,0.000000,,2013-06-23 07:12:00,
2013-06-23 02:22:00,74.0,73.0,30.01,SE,134,0.0,0.0,96,0.00,,,0.00,0.000000,,2013-06-23 07:22:00,
2013-06-23 02:34:00,73.0,72.0,30.01,SE,134,0.0,0.0,96,0.00,,,0.00,0.000000,,2013-06-23 07:34:00,
2013-06-23 02:43:00,73.0,72.0,30.01,SE,134,0.0,0.0,96,0.00,,,0.00,0.000000,,2013-06-23 07:43:00,
2013-06-23 02:53:00,73.0,72.0,30.00,SE,134,0.0,1.0,96,0.00,,,0.00,0.000000,,2013-06-23 07:53:00,
2013-06-23 03:02:00,73.0,72.0,30.01,SE,134,0.0,0.0,96,0.00,,,0.00,0.000000,,2013-06-23 08:02:00,
2013-06-23 03:12:00,73.0,72.0,30.00,SE,134,0.0,0.0,96,0.00,,,0.00,0.000000,,2013-06-23 08:12:00,
2013-06-23 03:22:00,73.0,72.0,30.00,SE,134,0.0,0.0,96,0.00,,,0.00,0.000000,,2013-06-23 08:22:00,
2013-06-23 03:34:00,73.0,72.0,30.00,SE,134,0.0,0.0,96,0.00,,,0.00,0.000000,,2013-06-23 08:34:00,
2013-06-23 03:43:00,73.0,72.0,30.00,SE,134,0.0,0.0,96,0.00,,,0.00,0.000000,,2013-06-23 08:43:00,
2013-06-23 03:53:00,73.0,72.0,30.00,SE,134,0.0,0.0,96,0.00,,,0.00,0.000000,,2013-06-23 08:53:00,
2013-06-23 04:02:00,73.0,72.0,30.01,SE,134,0.0,0.0,97,0.00,,,0.00,0.000000,,2013-06-23 09:02:00,
2013-06-23 04:12:00,73.0,72.0,30.01,SE,134,0.0,1.0,97,0.00,,,0.00,0.000000,,2013-06-23 09:12:00,
2013-06-23 04:22:00,72.0,71.0,30.00,SE,134,0.0,0.0,97,0.00,,,0.00,0.000000,,2013-06-23 09:22:00,
2013-06-23 04:34:00,72.0,71.0,30.00,SE,134,0.0,0.0,97,0.00,,,0.00,0.000000,,2013-06-23 09:34:00,
2013-06-23 04:43:00,72.0,71.0,30.00,SE,134,0.0,0.0,96,0.00,,,0.00,0.000000,,2013-06-23 09:43:00,
2013-06-23 04:53:00,72.0,71.0,30.00,SE,134,0.0,0.0,97,0.00,,,0.00,0.000000,,2013-06-23 09:53:00,
2013-06-23 05:02:00,72.0,71.0,30.00,SE,134,0.0,0.0,97,0.00,,,0.00,0.000000,,2013-06-23 10:02:00,
2013-06-23 05:11:00,72.0,71.0,30.00,SE,134,0.0,0.0,97,0.00,,,0.00,0.000000,,2013-06-23 10:11:00,
2013-06-23 05:22:00,72.0,71.0,30.00,SE,134,0.0,0.0,97,0.00,,,0.00,0.000000,,2013-06-23 10:22:00,
2013-06-23 05:34:00,72.0,71.0,30.00,SE,134,0.0,0.0,97,0.00,,,0.00,0.000000,,2013-06-23 10:34:00,
2013-06-23 05:43:00,72.0,71.0,30.01,SE,134,0.0,0.0,97,0.00,,,0.00,0.000000,,2013-06-23 10:43:00,
2013-06-23 05:53:00,72.0,71.0,30.01,SE,134,0.0,0.0,97,0.00,,,0.00,0.000000,,2013-06-23 10:53:00,
2013-06-23 06:01:00,72.0,71.0,30.00,SE,134,0.0,0.0,97,0.00,,,0.00,0.000000,,2013-06-23 11:01:00,
2013-06-23 06:11:00,72.0,71.0,30.01,SE,135,0.0,1.0,97,0.00,,,0.00,0.000000,,2013-06-23 11:11:00,
2013-06-23 06:22:00,72.0,71.0,30.01,SE,135,0.0,0.0,97,0.00,,,0.00,0.000000,,2013-06-23 11:22:00,
2013-06-23 06:33:00,72.0,71.0,30.01,SE,135,0.0,0.0,97,0.00,,,0.00,0.000000,,2013-06-23 11:33:00,
2013-06-23 06:43:00,72.0,71.0,30.01,SE,135,0.0,0.0,97,0.00,,,0.00,5.000000,,2013-06-23 11:43:00,
2013-06-23 06:53:00,72.0,71.0,30.01,SE,135,0.0,1.0,97,0.00,,,0.00,12.000000,,2013-06-23 11:53:00,
2013-06-23 07:01:00,72.0,71.0,30.01,SE,135,0.0,0.0,97,0.00,,,0.00,21.000000,,2013-06-23 12:01:00,
2013-06-23 07:12:00,72.0,71.0,30.02,SE,135,0.0,0.0,97,0.00,,,0.00,33.000000,,2013-06-23 12:12:00,
2013-06-23 07:22:00,72.0,71.0,30.02,SE,135,0.0,0.0,98,0.00,,,0.00,39.000000,,2013-06-23 12:22:00,
2013-06-23 07:33:00,72.0,71.0,30.02,SE,135,0.0,0.0,98,0.00,,,0.00,42.000000,,2013-06-23 12:33:00,
2013-06-23 07:42:00,73.0,72.0,30.02,SE,135,0.0,0.0,98,0.00,,,0.00,56.000000,,2013-06-23 12:42:00,
2013-06-23 07:53:00,73.0,72.0,30.02,SE,135,0.0,0.0,98,0.00,,,0.00,95.000000,,2013-06-23 12:53:00,
2013-06-23 08:02:00,74.0,74.0,30.02,SE,135,0.0,1.0,99,0.00,,,0.00,56.000000,,2013-06-23 13:02:00,
2013-06-23 08:11:00,75.0,75.0,30.03,SE,135,0.0,1.0,99,0.00,,,0.00,62.000000,,2013-06-23 13:11:00,
2013-06-23 08:23:00,76.0,75.0,30.03,SE,135,0.0,0.0,98,0.00,,,0.00,53.000000,,2013-06-23 13:23:00,
2013-06-23 08:34:00,76.0,76.0,30.03,SE,135,0.0,0.0,99,0.00,,,0.00,74.000000,,2013-06-23 13:34:00,
2013-06-23 08:43:00,77.0,77.0,30.03,SE,135,0.0,0.0,99,0.00,,,0.00,114.000000,,2013-06-23 13:43:00,
2013-06-23 08:53:00,77.0,77.0,30.04,ESE,123,0.0,0.0,99,0.00,,,0.00,142.000000,,2013-06-23 13:53:00,
2013-06-23 09:04:00,78.0,78.0,30.04,ESE,123,0.0,0.0,99,0.00,,,0.00,95.000000,,2013-06-23 14:04:00,
2013-06-23 09:11:00,78.0,78.0,30.04,ESE,123,0.0,0.0,99,0.00,,,0.00,236.000000,,2013-06-23 14:11:00,
2013-06-23 09:22:00,79.0,79.0,30.04,ESE,123,0.0,1.0,99,0.00,,,0.00,392.000000,,2013-06-23 14:22:00,
2013-06-23 09:34:00,79.0,79.0,30.04,ESE,123,0.0,0.0,99,0.00,,,0.00,332.000000,,2013-06-23 14:34:00,
2013-06-23 09:44:00,80.0,79.0,30.04,ESE,123,0.0,0.0,98,0.00,,,0.00,359.000000,,2013-06-23 14:44:00,
2013-06-23 09:52:00,81.0,80.0,30.05,SE,126,0.0,1.0,98,0.00,,,0.00,445.000000,,2013-06-23 14:52:00,
2013-06-23 10:05:00,82.0,81.0,30.05,SE,126,0.0,1.0,96,0.00,,,0.00,113.000000,,2013-06-23 15:05:00,
2013-06-23 10:11:00,82.0,80.0,30.05,SE,126,0.0,0.0,93,0.00,,,0.00,116.000000,,2013-06-23 15:11:00,
2013-06-23 10:23:00,83.0,80.0,30.05,SE,126,0.0,0.0,92,0.00,,,0.00,93.000000,,2013-06-23 15:23:00,
2013-06-23 10:35:00,83.0,79.0,30.04,WSW,246,0.0,1.0,89,0.00,,,0.00,656.000000,,2013-06-23 15:35:00,
2013-06-23 10:43:00,85.0,81.0,30.05,WSW,246,0.0,0.0,87,0.00,,,0.00,657.000000,,2013-06-23 15:43:00,
2013-06-23 10:52:00,86.0,79.0,30.05,SW,223,0.0,1.0,79,0.00,,,0.00,125.000000,,2013-06-23 15:52:00,
2013-06-23 11:06:00,85.0,79.0,30.06,South,186,0.0,1.0,83,0.00,,,0.00,93.000000,,2013-06-23 16:06:00,
2013-06-23 11:12:00,85.0,80.0,30.06,South,184,0.0,0.0,85,0.00,,,0.00,109.000000,,2013-06-23 16:12:00,
2013-06-23 11:22:00,83.0,76.0,30.07,ESE,113,0.0,2.0,80,0.00,,,0.00,102.000000,,2013-06-23 16:22:00,
2013-06-23 11:36:00,81.0,73.0,30.07,East,80,0.0,2.0,78,0.00,,,0.00,141.000000,,2013-06-23 16:36:00,
2013-06-23 11:43:00,81.0,75.0,30.07,East,80,0.0,1.0,81,0.00,,,0.00,121.000000,,2013-06-23 16:43:00,
2013-06-23 11:53:00,80.0,75.0,30.06,ESE,108,0.0,1.0,84,0.00,,,0.00,142.000000,,2013-06-23 16:53:00,
2013-06-23 12:04:00,80.0,76.0,30.06,ESE,109,0.0,0.0,87,0.00,,,0.00,183.000000,,2013-06-23 17:04:00,
2013-06-23 12:12:00,79.0,74.0,30.07,ESE,109,0.0,1.0,86,0.00,,,0.00,214.000000,,2013-06-23 17:12:00,
2013-06-23 12:22:00,80.0,76.0,30.07,ESE,109,0.0,1.0,87,0.00,,,0.00,288.000000,,2013-06-23 17:22:00,
2013-06-23 12:33:00,81.0,77.0,30.06,ESE,109,0.0,0.0,87,0.00,,,0.00,967.000000,,2013-06-23 17:33:00,
2013-06-23 12:43:00,83.0,78.0,30.05,ESE,109,0.0,1.0,86,0.00,,,0.00,949.000000,,2013-06-23 17:43:00,
2013-06-23 15:53:00,89.0,78.0,29.99,SSE,155,0.0,5.0,71,0.00,,,0.00,348.000000,,2013-06-23 20:53:00,
2013-06-23 16:01:00,89.0,78.0,29.99,SSE,155,0.0,5.0,71,0.00,,,0.00,348.000000,,2013-06-23 21:01:00,
2013-06-23 18:11:00,85.0,77.0,29.98,SE,144,0.0,2.0,77,0.00,,,0.00,181.000000,,2013-06-23 23:11:00,
2013-06-23 18:22:00,85.0,77.0,29.98,North,355,0.0,2.0,77,0.00,,,0.00,123.000000,,2013-06-23 23:22:00,
2013-06-23 19:22:00,83.0,77.0,29.98,SE,124,0.0,0.0,82,0.00,,,0.00,44.000000,,2013-06-24 00:22:00,
2013-06-23 19:33:00,83.0,78.0,29.98,South,186,0.0,1.0,84,0.00,,,0.00,39.000000,,2013-06-24 00:33:00,
2013-06-23 19:42:00,83.0,78.0,29.98,SE,132,0.0,1.0,84,0.00,,,0.00,33.000000,,2013-06-24 00:42:00,
2013-06-23 19:52:00,82.0,77.0,29.98,SSE,159,0.0,1.0,84,0.00,,,0.00,21.000000,,2013-06-24 00:52:00,
2013-06-23 20:01:00,82.0,76.0,29.99,SSE,159,0.0,0.0,83,0.00,,,0.00,12.000000,,2013-06-24 01:01:00,
2013-06-23 20:11:00,81.0,76.0,29.99,SSE,159,0.0,1.0,85,0.00,,,0.00,7.000000,,2013-06-24 01:11:00,
2013-06-23 20:22:00,81.0,76.0,29.99,SSE,159,0.0,1.0,85,0.00,,,0.00,7.000000,,2013-06-24 01:22:00,
2013-06-23 20:32:00,80.0,76.0,29.99,SSE,148,0.0,0.0,87,0.00,,,0.00,0.000000,,2013-06-24 01:32:00,
2013-06-23 20:42:00,80.0,76.0,30.00,SSE,148,0.0,0.0,88,0.00,,,0.00,0.000000,,2013-06-24 01:42:00,
2013-06-23 20:53:00,80.0,76.0,30.00,SSE,153,0.0,0.0,89,0.00,,,0.00,0.000000,,2013-06-24 01:53:00,
2013-06-23 21:02:00,79.0,75.0,30.00,SSE,153,0.0,0.0,89,0.00,,,0.00,0.000000,,2013-06-24 02:02:00,
2013-06-23 21:11:00,79.0,75.0,30.00,SSE,153,0.0,1.0,89,0.00,,,0.00,0.000000,,2013-06-24 02:11:00,
2013-06-23 21:22:00,79.0,75.0,30.00,SSE,153,0.0,1.0,89,0.00,,,0.00,0.000000,,2013-06-24 02:22:00,
2013-06-23 21:33:00,78.0,75.0,30.00,SSE,153,0.0,1.0,90,0.00,,,0.00,0.000000,,2013-06-24 02:33:00,
2013-06-23 21:42:00,78.0,75.0,30.00,SSE,153,0.0,0.0,91,0.00,,,0.00,0.000000,,2013-06-24 02:42:00,
2013-06-23 21:53:00,78.0,75.0,30.01,SSE,153,0.0,0.0,91,0.00,,,0.00,0.000000,,2013-06-24 02:53:00,
2013-06-23 22:01:00,78.0,75.0,30.01,SSE,153,0.0,0.0,92,0.00,,,0.00,0.000000,,2013-06-24 03:01:00,
2013-06-23 22:11:00,78.0,75.0,30.01,SSE,153,0.0,0.0,92,0.00,,,0.00,0.000000,,2013-06-24 03:11:00,
2013-06-23 22:22:00,78.0,75.0,30.02,SSE,153,0.0,0.0,92,0.00,,,0.00,0.000000,,2013-06-24 03:22:00,
2013-06-23 22:33:00,77.0,74.0,30.02,SSE,153,0.0,0.0,92,0.00,,,0.00,0.000000,,2013-06-24 03:33:00,
2013-06-23 22:43:00,77.0,74.0,30.02,SSE,153,0.0,0.0,92,0.00,,,0.00,0.000000,,2013-06-24 03:43:00,
2013-06-23 22:53:00,77.0,75.0,30.02,SSE,149,0.0,1.0,93,0.00,,,0.00,0.000000,,2013-06-24 03:53:00,
2013-06-23 23:02:00,77.0,75.0,30.02,SSE,149,0.0,0.0,93,0.00,,,0.00,0.000000,,2013-06-24 04:02:00,
2013-06-23 23:12:00,77.0,75.0,30.02,SSE,149,0.0,0.0,93,0.00,,,0.00,0.000000,,2013-06-24 04:12:00,
2013-06-23 23:22:00,77.0,75.0,30.02,SSE,149,0.0,0.0,93,0.00,,,0.00,0.000000,,2013-06-24 04:22:00,
2013-06-23 23:33:00,77.0,75.0,30.02,SSE,149,0.0,0.0,93,0.00,,,0.00,0.000000,,2013-06-24 04:33:00,
2013-06-23 23:43:00,76.0,74.0,30.03,SSE,149,0.0,0.0,94,0.00,,,0.00,0.000000,,2013-06-24 04:43:00,
2013-06-23 23:52:00,76.0,74.0,30.03,SSE,149,0.0,0.0,94,0.00,,,0.00,0.000000,,2013-06-24 04:52:00,